Time;durP1;ratioP1;P1;durP2;ratioP2;P2;SDS_P1;SDS_P2;PMS_P1;PMS_P2;Temp;Humidity;BMP_temperature;BMP_pressure;BME280_temperature;BME280_humidity;BME280_pressure;Samples;Min_cycle;Max_cycle;Signal;HPM_P1;HPM_P2
2023/12/12 00:00:19;;;;;;;0.70;0.70;;;;;;;10.54;100.00;99605.03;4993013;28;20034;-62
2023/12/12 00:02:44;;;;;;;0.70;0.70;;;;;;;10.49;100.00;99612.31;5008179;28;20030;-63
2023/12/12 00:05:10;;;;;;;0.80;0.80;;;;;;;10.48;100.00;99613.25;5010460;28;20030;-62
2023/12/12 00:07:35;;;;;;;0.70;0.70;;;;;;;10.39;100.00;99610.94;5006721;28;20021;-63
2023/12/12 00:10:01;;;;;;;0.70;0.70;;;;;;;10.39;100.00;99616.25;4990434;28;20056;-62
2023/12/12 00:12:26;;;;;;;0.70;0.70;;;;;;;10.35;100.00;99613.78;4998145;28;20029;-62
2023/12/12 00:14:51;;;;;;;0.75;0.75;;;;;;;10.33;100.00;99621.81;5005145;28;20029;-62
2023/12/12 00:17:17;;;;;;;0.80;0.80;;;;;;;10.29;100.00;99617.53;5010986;28;20025;-62
2023/12/12 00:19:42;;;;;;;0.70;0.70;;;;;;;10.29;100.00;99620.22;5001467;28;20034;-63
2023/12/12 00:22:09;;;;;;;0.63;0.63;;;;;;;10.31;100.00;99622.81;4999309;28;20048;-62
2023/12/12 00:24:34;;;;;;;0.70;0.70;;;;;;;10.32;100.00;99620.09;5011423;28;20037;-63
2023/12/12 00:26:59;;;;;;;0.80;0.80;;;;;;;10.33;100.00;99612.94;5012246;28;20052;-62
2023/12/12 00:29:25;;;;;;;0.70;0.70;;;;;;;10.34;100.00;99614.72;4997334;28;20026;-62
2023/12/12 00:31:50;;;;;;;0.80;0.80;;;;;;;10.35;100.00;99613.78;5010554;28;20676;-62
2023/12/12 00:34:15;;;;;;;0.77;0.77;;;;;;;10.35;100.00;99614.66;5016917;28;20050;-62
2023/12/12 00:36:41;;;;;;;0.80;0.80;;;;;;;10.39;100.00;99621.56;5029691;28;20547;-61
2023/12/12 00:39:07;;;;;;;0.70;0.70;;;;;;;10.43;100.00;99612.56;4993959;28;20033;-62
2023/12/12 00:41:34;;;;;;;0.70;0.70;;;;;;;10.43;100.00;99611.69;4995943;28;20034;-62
2023/12/12 00:43:59;;;;;;;0.70;0.70;;;;;;;10.43;100.00;99607.25;5012852;28;20481;-62
2023/12/12 00:46:25;;;;;;;0.70;0.70;;;;;;;10.42;100.00;99621.47;5016962;28;20028;-63
2023/12/12 00:48:50;;;;;;;0.73;0.73;;;;;;;10.40;100.00;99612.69;5007808;28;20030;-62
2023/12/12 00:51:15;;;;;;;0.80;0.80;;;;;;;10.38;100.00;99613.66;4999368;28;20389;-63
2023/12/12 00:53:41;;;;;;;0.70;0.70;;;;;;;10.35;100.00;99614.66;5024470;28;20036;-60
2023/12/12 00:56:06;;;;;;;0.80;0.80;;;;;;;10.35;100.00;99611.97;5004660;28;20131;-60
2023/12/12 00:58:32;;;;;;;0.70;0.70;;;;;;;10.30;100.00;99608.63;5010486;28;20462;-60
2023/12/12 01:00:57;;;;;;;0.80;0.80;;;;;;;10.29;100.00;99606.03;5008427;28;20034;-60
2023/12/12 01:03:22;;;;;;;0.80;0.80;;;;;;;10.23;100.00;99608.94;5021780;28;20658;-60
2023/12/12 01:05:48;;;;;;;0.68;0.68;;;;;;;10.17;100.00;99609.16;5026807;28;20033;-60
2023/12/12 01:08:13;;;;;;;0.60;0.60;;;;;;;10.11;100.00;99610.25;4997314;28;20141;-60
2023/12/12 01:10:38;;;;;;;0.70;0.70;;;;;;;10.09;100.00;99608.56;5008721;28;20030;-60
2023/12/12 01:13:04;;;;;;;0.80;0.80;;;;;;;10.09;100.00;99585.53;5007546;28;20113;-60
2023/12/12 01:15:30;;;;;;;0.70;0.70;;;;;;;10.05;100.00;99581.22;5028966;28;20112;-60
2023/12/12 01:17:55;;;;;;;0.70;0.70;;;;;;;9.99;100.00;99578.78;5020449;28;20079;-60
2023/12/12 01:20:20;;;;;;;0.70;0.70;;;;;;;9.93;100.00;99571.06;4995877;28;20082;-60
2023/12/12 01:22:46;;;;;;;0.63;0.63;;;;;;;9.89;100.00;99576.50;5025892;28;20036;-61
2023/12/12 01:25:11;;;;;;;0.77;0.77;;;;;;;9.84;100.00;99583.78;5007109;28;20068;-61
2023/12/12 01:27:37;;;;;;;0.70;0.70;;;;;;;9.76;100.00;99581.41;5008411;28;20474;-60
2023/12/12 01:30:03;;;;;;;0.80;0.80;;;;;;;9.71;100.00;99578.06;4992518;28;20038;-60
2023/12/12 01:32:28;;;;;;;0.70;0.70;;;;;;;9.65;100.00;99583.59;5014355;28;20025;-60
2023/12/12 01:34:54;;;;;;;0.80;0.80;;;;;;;9.59;100.00;99583.81;4997585;28;20141;-60
2023/12/12 01:37:19;;;;;;;0.70;0.70;;;;;;;9.56;100.00;99585.69;4990370;28;20026;-60
2023/12/12 01:39:44;;;;;;;0.80;0.80;;;;;;;9.53;100.00;99578.72;4990724;28;20414;-60
2023/12/12 01:42:11;;;;;;;0.77;0.77;;;;;;;9.47;100.00;99573.63;5008924;28;20030;-60
2023/12/12 01:44:36;;;;;;;0.80;0.80;;;;;;;9.44;100.00;99571.06;4994133;28;20038;-60
2023/12/12 01:47:02;;;;;;;0.80;0.80;;;;;;;9.38;100.00;99562.44;5007259;28;20088;-60
2023/12/12 01:49:27;;;;;;;0.80;0.80;;;;;;;9.32;100.00;99575.00;5007460;28;20034;-60
2023/12/12 01:51:53;;;;;;;0.80;0.80;;;;;;;9.28;100.00;99580.50;5009009;28;20030;-60
2023/12/12 01:54:19;;;;;;;0.85;0.85;;;;;;;9.27;100.00;99574.31;5008045;28;20424;-60
2023/12/12 01:56:50;;;;;;;0.80;0.80;;;;;;;9.25;100.00;99568.22;5003832;28;20038;-60
2023/12/12 01:59:17;;;;;;;0.80;0.80;;;;;;;9.25;100.00;99562.03;5008618;28;20022;-60
2023/12/12 02:01:43;;;;;;;0.80;0.80;;;;;;;9.20;100.00;99551.56;5006238;28;20026;-60
2023/12/12 02:04:09;;;;;;;0.70;0.70;;;;;;;9.21;100.00;99563.91;5009351;28;20385;-60
2023/12/12 02:06:35;;;;;;;0.75;0.75;;;;;;;9.22;100.00;99565.63;5006930;28;20464;-61
2023/12/12 02:09:00;;;;;;;0.75;0.75;;;;;;;9.22;100.00;99572.75;5004481;28;20026;-60
2023/12/12 02:11:26;;;;;;;0.75;0.75;;;;;;;9.21;100.00;99557.72;5003685;28;20025;-60
2023/12/12 02:13:51;;;;;;;0.70;0.70;;;;;;;9.18;100.00;99555.19;5007885;28;20038;-60
2023/12/12 02:16:17;;;;;;;0.80;0.80;;;;;;;9.13;100.00;99573.91;4994473;28;20030;-60
2023/12/12 02:18:42;;;;;;;0.80;0.80;;;;;;;9.01;100.00;99565.53;5007753;28;20040;-60
2023/12/12 02:21:08;;;;;;;0.80;0.80;;;;;;;8.98;100.00;99569.13;5007501;28;20032;-60
2023/12/12 02:23:33;;;;;;;0.82;0.82;;;;;;;8.93;100.00;99580.78;5009523;28;20520;-60
2023/12/12 02:25:59;;;;;;;0.70;0.70;;;;;;;8.82;100.00;99562.59;5009288;28;20034;-60
2023/12/12 02:28:26;;;;;;;0.80;0.80;;;;;;;8.85;100.00;99577.53;5009117;28;20472;-60
2023/12/12 02:30:51;;;;;;;0.90;0.90;;;;;;;8.82;100.00;99582.94;5006191;28;20026;-60
2023/12/12 02:33:17;;;;;;;0.70;0.70;;;;;;;8.78;100.00;99565.41;5008185;28;20040;-60
2023/12/12 02:35:42;;;;;;;0.75;0.75;;;;;;;8.73;100.00;99564.69;5007515;28;20677;-60
2023/12/12 02:38:08;;;;;;;0.77;0.77;;;;;;;8.79;100.00;99570.66;5012761;28;20470;-60
2023/12/12 02:40:33;;;;;;;0.80;0.80;;;;;;;8.82;100.00;99562.59;5008844;28;20026;-61
2023/12/12 02:42:59;;;;;;;0.80;0.80;;;;;;;8.86;100.00;99550.97;5012149;28;20587;-60
2023/12/12 02:45:24;;;;;;;0.80;0.80;;;;;;;8.90;100.00;99549.94;5011119;28;20038;-60
2023/12/12 02:47:50;;;;;;;0.80;0.80;;;;;;;8.89;100.00;99547.34;5000064;28;20025;-60
2023/12/12 02:50:17;;;;;;;0.90;0.90;;;;;;;8.90;100.00;99543.78;5012794;28;20055;-60
2023/12/12 02:52:42;;;;;;;0.75;0.75;;;;;;;8.87;100.00;99538.56;5012397;28;20037;-60
2023/12/12 02:55:07;;;;;;;0.70;0.70;;;;;;;8.84;100.00;99528.94;5006529;28;20045;-61
2023/12/12 02:57:33;;;;;;;0.80;0.80;;;;;;;8.90;100.00;99527.84;5011490;28;20513;-60
2023/12/12 02:59:58;;;;;;;0.80;0.80;;;;;;;8.86;100.00;99520.94;5012002;28;20065;-60
2023/12/12 03:02:24;;;;;;;0.70;0.70;;;;;;;8.91;100.00;99525.16;5011832;28;20060;-60
2023/12/12 03:04:49;;;;;;;0.90;0.90;;;;;;;8.89;100.00;99521.72;5006332;28;20402;-60
2023/12/12 03:07:15;;;;;;;0.73;0.73;;;;;;;8.88;100.00;99513.81;5012371;28;20029;-60
2023/12/12 03:09:40;;;;;;;0.80;0.80;;;;;;;8.83;100.00;99510.44;5011065;28;20386;-60
2023/12/12 03:12:06;;;;;;;0.70;0.70;;;;;;;8.85;100.00;99519.19;5012536;28;20026;-60
2023/12/12 03:14:31;;;;;;;0.75;0.75;;;;;;;8.86;100.00;99512.97;5013459;28;20864;-63
2023/12/12 03:16:57;;;;;;;0.80;0.80;;;;;;;8.82;100.00;99511.34;5004159;28;20132;-63
2023/12/12 03:19:23;;;;;;;0.80;0.80;;;;;;;8.87;100.00;99514.69;5013827;28;20025;-62
2023/12/12 03:21:49;;;;;;;0.90;0.90;;;;;;;8.89;100.00;99510.22;5009535;28;20022;-62
2023/12/12 03:24:14;;;;;;;0.90;0.90;;;;;;;8.84;100.00;99493.59;5013063;28;20049;-63
2023/12/12 03:26:40;;;;;;;0.80;0.80;;;;;;;8.82;100.00;99493.66;5012982;28;20037;-62
2023/12/12 03:29:05;;;;;;;0.90;0.90;;;;;;;8.80;100.00;99484.00;4999239;28;20041;-62
2023/12/12 03:31:31;;;;;;;0.80;0.80;;;;;;;8.74;100.00;99473.63;5011301;28;20103;-63
2023/12/12 03:33:56;;;;;;;0.90;0.90;;;;;;;8.72;100.00;99475.44;5012478;28;20046;-62
2023/12/12 03:36:22;;;;;;;0.90;0.90;;;;;;;8.72;100.00;99462.19;5012575;28;20042;-63
2023/12/12 03:38:47;;;;;;;0.70;0.70;;;;;;;8.73;100.00;99467.44;4996975;28;20072;-62
2023/12/12 03:41:13;;;;;;;0.80;0.80;;;;;;;8.74;100.00;99463.00;5013234;28;20454;-62
2023/12/12 03:43:38;;;;;;;0.80;0.80;;;;;;;8.77;100.00;99462.91;5013451;28;20042;-62
2023/12/12 03:46:04;;;;;;;0.80;0.80;;;;;;;8.80;100.00;99453.06;5009558;28;20039;-62
2023/12/12 03:48:30;;;;;;;0.80;0.80;;;;;;;8.84;100.00;99457.34;5011511;28;20022;-62
2023/12/12 03:50:55;;;;;;;0.70;0.70;;;;;;;8.87;100.00;99459.88;5011620;28;20048;-61
2023/12/12 03:53:20;;;;;;;0.70;0.70;;;;;;;8.91;100.00;99458.84;5010199;28;20037;-62
2023/12/12 03:55:46;;;;;;;0.77;0.77;;;;;;;8.94;100.00;99450.81;5011276;28;20026;-62
2023/12/12 03:58:11;;;;;;;0.80;0.80;;;;;;;8.97;100.00;99445.41;5007488;28;20205;-61
2023/12/12 04:00:37;;;;;;;0.80;0.80;;;;;;;9.02;100.00;99447.88;5010885;28;20072;-62
2023/12/12 04:03:02;;;;;;;0.80;0.80;;;;;;;9.02;100.00;99442.56;5011553;28;20080;-62
2023/12/12 04:05:28;;;;;;;0.70;0.70;;;;;;;9.05;100.00;99448.63;4995050;28;20031;-62
2023/12/12 04:07:53;;;;;;;0.80;0.80;;;;;;;9.09;100.00;99438.78;5003444;28;20060;-62
2023/12/12 04:10:18;;;;;;;0.80;0.80;;;;;;;9.15;100.00;99444.75;5009062;28;20030;-62
2023/12/12 04:12:44;;;;;;;0.80;0.80;;;;;;;9.17;100.00;99439.38;5010089;28;20379;-62
2023/12/12 04:15:10;;;;;;;0.90;0.90;;;;;;;9.19;100.00;99450.81;5011780;28;20041;-62
2023/12/12 04:17:35;;;;;;;0.80;0.80;;;;;;;9.25;100.00;99446.13;5003650;28;20029;-62
2023/12/12 04:20:01;;;;;;;0.80;0.80;;;;;;;9.28;100.00;99442.50;5011992;28;20060;-62
2023/12/12 04:22:26;;;;;;;0.73;0.73;;;;;;;9.29;100.00;99446.91;5011603;28;20030;-62
2023/12/12 04:24:51;;;;;;;0.80;0.80;;;;;;;9.33;100.00;99444.06;5009050;28;20444;-60
2023/12/12 04:27:17;;;;;;;0.70;0.70;;;;;;;9.33;100.00;99448.50;5008231;28;20061;-60
2023/12/12 04:29:42;;;;;;;0.90;0.90;;;;;;;9.31;100.00;99447.69;5010138;28;20105;-60
2023/12/12 04:32:08;;;;;;;0.80;0.80;;;;;;;9.29;100.00;99447.75;5010062;28;20694;-60
2023/12/12 04:34:34;;;;;;;0.90;0.90;;;;;;;9.30;100.00;99443.31;5004973;28;20058;-61
2023/12/12 04:37:03;;;;;;;0.80;0.80;;;;;;;9.30;100.00;99440.66;4991362;28;20050;-60
2023/12/12 04:39:29;;;;;;;0.90;0.90;;;;;;;9.33;100.00;99443.19;4993699;28;20037;-61
2023/12/12 04:41:54;;;;;;;0.80;0.80;;;;;;;9.38;100.00;99441.25;5010682;28;20041;-61
2023/12/12 04:44:20;;;;;;;0.80;0.80;;;;;;;9.39;100.00;99432.34;5000328;28;20022;-60
2023/12/12 04:46:45;;;;;;;0.80;0.80;;;;;;;9.48;100.00;99439.97;5007221;28;20477;-61
2023/12/12 04:49:10;;;;;;;0.80;0.80;;;;;;;9.50;100.00;99439.91;5006023;28;20068;-60
2023/12/12 04:51:36;;;;;;;0.70;0.70;;;;;;;9.60;100.00;99442.19;5009769;28;20038;-60
2023/12/12 04:54:01;;;;;;;0.70;0.70;;;;;;;9.66;100.00;99446.38;5009720;28;20105;-60
2023/12/12 04:56:27;;;;;;;0.70;0.70;;;;;;;9.68;100.00;99424.16;5009866;28;20037;-61
2023/12/12 04:58:52;;;;;;;0.90;0.90;;;;;;;9.73;100.00;99432.81;4999717;28;20022;-61
2023/12/12 05:01:18;;;;;;;0.75;0.75;;;;;;;9.74;100.00;99434.53;5008017;28;20021;-61
2023/12/12 05:03:44;;;;;;;0.80;0.80;;;;;;;9.71;100.00;99418.72;5009920;28;20037;-61
2023/12/12 05:06:10;;;;;;;0.80;0.80;;;;;;;9.78;100.00;99422.00;5010282;28;20488;-61
2023/12/12 05:08:35;;;;;;;0.80;0.80;;;;;;;9.82;100.00;99419.16;4998396;28;20152;-60
2023/12/12 05:11:01;;;;;;;0.73;0.73;;;;;;;9.84;100.00;99419.97;5006587;28;20033;-60
2023/12/12 05:13:27;;;;;;;0.80;0.80;;;;;;;9.88;100.00;99421.59;5009660;28;20040;-60
2023/12/12 05:15:52;;;;;;;0.70;0.70;;;;;;;9.94;100.00;99418.69;5007608;28;20029;-61
2023/12/12 05:18:17;;;;;;;0.77;0.77;;;;;;;9.97;100.00;99415.91;5010091;28;20034;-61
2023/12/12 05:20:43;;;;;;;0.80;0.80;;;;;;;9.99;100.00;99416.72;5010047;28;20061;-61
2023/12/12 05:23:09;;;;;;;0.70;0.70;;;;;;;10.00;100.00;99415.78;5010229;28;20032;-61
2023/12/12 05:25:35;;;;;;;0.80;0.80;;;;;;;9.96;100.00;99403.56;5006725;28;20522;-61
2023/12/12 05:28:00;;;;;;;0.70;0.70;;;;;;;10.00;100.00;99401.66;5009952;28;20037;-61
2023/12/12 05:30:26;;;;;;;0.70;0.70;;;;;;;10.00;100.00;99394.53;5009838;28;20529;-61
2023/12/12 05:32:51;;;;;;;0.70;0.70;;;;;;;9.99;100.00;99387.50;5009509;28;20049;-61
2023/12/12 05:35:17;;;;;;;0.70;0.70;;;;;;;10.00;100.00;99388.38;5020926;28;20049;-60
2023/12/12 05:37:42;;;;;;;0.80;0.80;;;;;;;10.01;100.00;99385.66;4990534;28;20042;-61
2023/12/12 05:40:08;;;;;;;0.70;0.70;;;;;;;10.07;100.00;99384.53;5004424;28;20493;-61
2023/12/12 05:42:33;;;;;;;0.70;0.70;;;;;;;10.08;100.00;99381.00;5005795;28;20029;-60
2023/12/12 05:44:59;;;;;;;0.80;0.80;;;;;;;10.06;100.00;99399.63;5008847;28;20560;-60
2023/12/12 05:47:25;;;;;;;0.70;0.70;;;;;;;10.03;100.00;99399.72;5008730;28;20393;-61
2023/12/12 05:49:50;;;;;;;0.80;0.80;;;;;;;10.04;100.00;99404.13;5007205;28;20844;-61
2023/12/12 05:52:16;;;;;;;0.75;0.75;;;;;;;10.07;100.00;99406.66;4999822;28;20044;-61
2023/12/12 05:54:42;;;;;;;0.80;0.80;;;;;;;10.11;100.00;99403.00;5009651;28;20452;-60
2023/12/12 05:57:07;;;;;;;0.70;0.70;;;;;;;10.13;100.00;99400.28;5009862;28;20033;-61
2023/12/12 05:59:33;;;;;;;0.80;0.80;;;;;;;10.11;100.00;99392.38;5007735;28;20485;-61
2023/12/12 06:02:00;;;;;;;0.70;0.70;;;;;;;10.15;100.00;99383.31;5007104;28;20162;-61
2023/12/12 06:04:26;;;;;;;0.85;0.85;;;;;;;10.17;100.00;99386.78;5010042;28;20037;-60
2023/12/12 06:06:52;;;;;;;0.70;0.70;;;;;;;10.17;100.00;99386.78;5009962;28;20044;-61
2023/12/12 06:09:17;;;;;;;0.80;0.80;;;;;;;10.15;100.00;99399.25;4995046;28;20034;-60
2023/12/12 06:11:43;;;;;;;0.68;0.68;;;;;;;10.11;100.00;99379.06;4992908;28;20482;-61
2023/12/12 06:14:09;;;;;;;0.70;0.70;;;;;;;10.17;100.00;99381.47;5003607;28;20026;-60
2023/12/12 06:16:34;;;;;;;0.80;0.80;;;;;;;10.15;100.00;99377.13;4991537;28;20022;-60
2023/12/12 06:19:04;;;;;;;0.80;0.80;;;;;;;10.14;100.00;99373.63;5009365;28;20100;-60
2023/12/12 06:21:32;;;;;;;0.80;0.80;;;;;;;10.19;100.00;99376.97;5006428;28;20029;-60
2023/12/12 06:23:59;;;;;;;0.70;0.70;;;;;;;10.13;100.00;99358.59;5005736;28;20028;-61
2023/12/12 06:26:26;;;;;;;0.80;0.80;;;;;;;10.23;100.00;99359.94;5008896;28;20022;-60
2023/12/12 06:28:52;;;;;;;0.80;0.80;;;;;;;10.25;100.00;99344.81;5005143;28;20120;-61
2023/12/12 06:31:17;;;;;;;0.70;0.70;;;;;;;10.25;100.00;99350.13;5000683;28;20100;-61
2023/12/12 06:33:42;;;;;;;0.70;0.70;;;;;;;10.25;100.00;99358.09;5009702;28;20041;-60
2023/12/12 06:36:09;;;;;;;0.70;0.70;;;;;;;10.28;100.00;99351.81;5004713;28;20027;-61
2023/12/12 06:38:35;;;;;;;0.80;0.80;;;;;;;10.24;100.00;99351.06;4999853;28;20314;-61
2023/12/12 06:41:00;;;;;;;0.80;0.80;;;;;;;10.19;100.00;99358.38;5005802;28;20045;-61
2023/12/12 06:43:25;;;;;;;0.80;0.80;;;;;;;10.15;100.00;99359.41;4996228;28;20038;-61
2023/12/12 06:45:51;;;;;;;0.80;0.80;;;;;;;10.21;100.00;99359.13;4995566;28;20034;-62
2023/12/12 06:48:17;;;;;;;0.80;0.80;;;;;;;10.20;100.00;99365.41;5008677;28;20029;-62
2023/12/12 06:50:43;;;;;;;0.70;0.70;;;;;;;10.17;100.00;99346.94;5017014;28;20064;-62
2023/12/12 06:53:08;;;;;;;0.70;0.70;;;;;;;10.27;100.00;99358.91;5011903;28;20143;-62
2023/12/12 06:55:34;;;;;;;0.80;0.80;;;;;;;10.28;100.00;99365.09;5025549;28;20034;-62
2023/12/12 06:58:00;;;;;;;0.70;0.70;;;;;;;10.31;100.00;99359.66;5009568;28;20080;-62
2023/12/12 07:00:25;;;;;;;0.80;0.80;;;;;;;10.28;100.00;99355.31;5021356;28;20710;-63
2023/12/12 07:02:50;;;;;;;0.70;0.70;;;;;;;10.27;100.00;99361.56;5008366;28;20108;-62
2023/12/12 07:05:16;;;;;;;0.70;0.70;;;;;;;10.33;100.00;99361.28;5005084;28;20029;-62
2023/12/12 07:07:41;;;;;;;0.80;0.80;;;;;;;10.33;100.00;99352.44;4997945;28;20584;-62
2023/12/12 07:10:07;;;;;;;0.75;0.75;;;;;;;10.31;100.00;99346.34;5018448;28;20033;-62
2023/12/12 07:12:33;;;;;;;0.73;0.73;;;;;;;10.34;100.00;99352.41;5020541;28;20961;-62
2023/12/12 07:14:58;;;;;;;0.70;0.70;;;;;;;10.34;100.00;99347.09;5008945;28;20033;-62
2023/12/12 07:17:24;;;;;;;0.80;0.80;;;;;;;10.36;100.00;99355.84;5008171;28;20034;-62
2023/12/12 07:19:49;;;;;;;0.70;0.70;;;;;;;10.37;100.00;99352.28;5024860;28;20034;-63
2023/12/12 07:22:15;;;;;;;0.70;0.70;;;;;;;10.42;100.00;99354.72;5010845;28;20141;-63
2023/12/12 07:24:41;;;;;;;0.70;0.70;;;;;;;10.42;100.00;99350.28;5013353;28;20033;-62
2023/12/12 07:27:06;;;;;;;0.80;0.80;;;;;;;10.43;100.00;99365.28;5024413;28;20033;-62
2023/12/12 07:29:32;;;;;;;0.70;0.70;;;;;;;10.45;100.00;99352.81;5009470;28;20497;-62
2023/12/12 07:31:57;;;;;;;0.70;0.70;;;;;;;10.47;100.00;99347.44;5013112;28;20021;-62
2023/12/12 07:34:22;;;;;;;0.80;0.80;;;;;;;10.47;100.00;99345.66;5010529;28;20088;-62
2023/12/12 07:36:49;;;;;;;0.70;0.70;;;;;;;10.51;100.00;99352.53;5004707;28;20018;-62
2023/12/12 07:39:15;;;;;;;0.70;0.70;;;;;;;10.52;100.00;99353.41;5009794;28;20021;-62
2023/12/12 07:41:41;;;;;;;0.73;0.73;;;;;;;10.52;100.00;99346.31;4998433;28;20026;-62
2023/12/12 07:44:06;;;;;;;0.70;0.70;;;;;;;10.51;100.00;99336.59;5012627;28;20105;-63
2023/12/12 07:46:38;;;;;;;0.70;0.70;;;;;;;10.48;100.00;99323.44;5010701;28;20109;-62
2023/12/12 07:49:06;;;;;;;0.70;0.70;;;;;;;10.54;100.00;99311.69;5011073;28;20109;-62
2023/12/12 07:51:32;;;;;;;0.70;0.70;;;;;;;10.50;100.00;99316.25;5011000;28;20057;-62
2023/12/12 07:53:58;;;;;;;0.70;0.70;;;;;;;10.53;100.00;99316.13;5008245;28;20033;-62
2023/12/12 07:56:23;;;;;;;0.80;0.80;;;;;;;10.57;100.00;99304.44;5010998;28;20028;-62
2023/12/12 07:58:49;;;;;;;0.80;0.80;;;;;;;10.57;100.00;99293.78;5010477;28;20022;-62
2023/12/12 08:01:15;;;;;;;0.70;0.70;;;;;;;10.61;100.00;99306.00;5010248;28;20458;-62
2023/12/12 08:03:41;;;;;;;0.70;0.70;;;;;;;10.61;100.00;99303.34;5001132;28;20621;-62
2023/12/12 08:06:07;;;;;;;0.60;0.60;;;;;;;10.67;100.00;99301.34;4992264;28;20054;-62
2023/12/12 08:08:33;;;;;;;0.60;0.60;;;;;;;10.70;100.00;99290.56;5011338;28;20057;-62
2023/12/12 08:10:59;;;;;;;0.70;0.70;;;;;;;10.70;100.00;99291.44;5011256;28;20546;-62
2023/12/12 08:13:24;;;;;;;0.60;0.60;;;;;;;10.74;100.00;99301.00;5009954;28;20038;-62
2023/12/12 08:15:49;;;;;;;0.70;0.70;;;;;;;10.76;100.00;99295.63;5011068;28;20088;-62
2023/12/12 08:18:15;;;;;;;0.70;0.70;;;;;;;10.79;100.00;99290.19;5005964;28;20049;-62
2023/12/12 08:20:40;;;;;;;0.70;0.70;;;;;;;10.81;100.00;99283.00;5012053;28;20030;-62
2023/12/12 08:23:06;;;;;;;0.70;0.70;;;;;;;10.84;100.00;99285.50;5011600;28;20628;-62
2023/12/12 08:25:32;;;;;;;0.70;0.70;;;;;;;10.76;100.00;99277.03;4999374;28;20041;-62
2023/12/12 08:27:57;;;;;;;0.70;0.70;;;;;;;10.82;100.00;99290.03;5013058;28;20026;-62
2023/12/12 08:30:23;;;;;;;0.77;0.77;;;;;;;10.80;100.00;99291.88;5004948;28;20089;-62
2023/12/12 08:32:49;;;;;;;0.80;0.80;;;;;;;10.79;100.00;99299.00;5008982;28;20374;-62
2023/12/12 08:35:14;;;;;;;0.80;0.80;;;;;;;10.59;100.00;99253.84;5011508;28;20038;-63
2023/12/12 08:37:40;;;;;;;0.70;0.70;;;;;;;10.77;100.00;99294.69;4994214;28;20053;-63
2023/12/12 08:40:06;;;;;;;0.80;0.80;;;;;;;10.78;100.00;99293.75;4997129;28;20040;-62
2023/12/12 08:42:32;;;;;;;0.70;0.70;;;;;;;10.60;100.00;99269.72;5002193;28;20053;-62
2023/12/12 08:44:58;;;;;;;0.70;0.70;;;;;;;10.76;100.00;99301.78;4992661;28;20437;-62
2023/12/12 08:47:23;;;;;;;0.80;0.80;;;;;;;10.76;100.00;99303.63;5010331;28;20025;-62
2023/12/12 08:49:49;;;;;;;0.80;0.80;;;;;;;10.76;100.00;99301.78;5001034;28;20052;-62
2023/12/12 08:52:15;;;;;;;0.70;0.70;;;;;;;10.78;100.00;99293.75;5010748;28;20018;-62
2023/12/12 08:54:44;;;;;;;0.70;0.70;;;;;;;10.78;100.00;99291.09;5001111;28;20049;-62
2023/12/12 08:57:10;;;;;;;0.70;0.70;;;;;;;10.80;100.00;99297.22;5008680;28;20099;-61
2023/12/12 08:59:38;;;;;;;0.77;0.77;;;;;;;10.79;100.00;99290.19;5011961;28;20022;-61
2023/12/12 09:02:04;;;;;;;0.70;0.70;;;;;;;10.80;100.00;99297.22;5010612;28;20034;-61
2023/12/12 09:04:32;;;;;;;0.70;0.70;;;;;;;10.81;100.00;99304.28;5012896;28;20026;-62
2023/12/12 09:06:58;;;;;;;0.70;0.70;;;;;;;10.85;100.00;99292.53;5012982;28;20418;-63
2023/12/12 09:09:24;;;;;;;0.80;0.80;;;;;;;10.86;100.00;99296.91;5013526;28;20032;-62
2023/12/12 09:11:50;;;;;;;0.70;0.70;;;;;;;10.87;100.00;99293.34;4996640;28;20073;-62
2023/12/12 09:14:15;;;;;;;0.80;0.80;;;;;;;10.85;100.00;99287.22;4996619;28;20074;-62
2023/12/12 09:16:40;;;;;;;0.70;0.70;;;;;;;10.87;100.00;99290.69;5011420;28;20033;-63
2023/12/12 09:19:06;;;;;;;0.80;0.80;;;;;;;10.91;100.00;99287.81;5020626;28;20034;-64
2023/12/12 09:21:31;;;;;;;0.70;0.70;;;;;;;10.97;100.00;99284.03;5024849;28;20025;-64
2023/12/12 09:23:57;;;;;;;0.70;0.70;;;;;;;11.00;100.00;99282.09;5020021;28;20025;-65
2023/12/12 09:26:22;;;;;;;0.70;0.70;;;;;;;11.03;100.00;99281.06;5019477;28;20041;-64
2023/12/12 09:28:48;;;;;;;0.70;0.70;;;;;;;11.05;100.00;99279.19;5029014;28;20077;-63
2023/12/12 09:31:13;;;;;;;0.70;0.70;;;;;;;11.04;100.00;99272.13;5030452;28;20021;-63
2023/12/12 09:33:39;;;;;;;0.80;0.80;;;;;;;11.06;100.00;99262.28;5024735;28;20452;-63
2023/12/12 09:36:06;;;;;;;0.77;0.77;;;;;;;11.08;100.00;99263.97;5023991;28;20579;-62
2023/12/12 09:38:31;;;;;;;0.70;0.70;;;;;;;11.10;100.00;99262.09;5018689;28;20725;-61
2023/12/12 09:40:57;;;;;;;0.70;0.70;;;;;;;11.11;100.00;99257.63;5000454;28;20105;-63
2023/12/12 09:43:26;;;;;;;0.70;0.70;;;;;;;11.08;100.00;99245.34;4995237;28;20034;-62
2023/12/12 09:45:55;;;;;;;0.70;0.70;;;;;;;11.10;100.00;99240.81;5003977;28;20032;-63
2023/12/12 09:48:21;;;;;;;0.70;0.70;;;;;;;11.09;100.00;99235.53;5014297;28;20024;-63
2023/12/12 09:50:47;;;;;;;0.70;0.70;;;;;;;11.12;100.00;99230.09;5014694;28;20057;-62
2023/12/12 09:53:13;;;;;;;0.70;0.70;;;;;;;11.14;100.00;99226.41;5014989;28;20034;-62
2023/12/12 09:55:40;;;;;;;0.70;0.70;;;;;;;11.20;100.00;99218.13;5002237;28;20117;-63
2023/12/12 09:58:06;;;;;;;0.70;0.70;;;;;;;11.23;100.00;99227.78;5013431;28;20026;-62
2023/12/12 10:00:32;;;;;;;0.60;0.60;;;;;;;11.26;100.00;99215.19;5003142;28;20109;-62
2023/12/12 10:02:59;;;;;;;0.70;0.70;;;;;;;11.32;100.00;99204.22;5010370;28;20100;-63
2023/12/12 10:05:32;;;;;;;0.63;0.63;;;;;;;11.38;100.00;99195.09;5009358;28;20029;-62
2023/12/12 10:07:59;;;;;;;0.70;0.70;;;;;;;11.47;100.00;99197.28;4991632;28;20036;-62
2023/12/12 10:10:25;;;;;;;0.60;0.60;;;;;;;11.54;100.00;99193.38;4990720;28;20057;-63
2023/12/12 10:12:50;;;;;;;0.60;0.60;;;;;;;11.62;100.00;99193.88;4990965;28;20050;-63
2023/12/12 10:15:26;;;;;;;0.60;0.60;;;;;;;11.67;100.00;99178.56;5005524;28;20037;-62
2023/12/12 10:17:59;;;;;;;0.60;0.60;;;;;;;11.70;100.00;99175.72;4991853;28;20466;-62
2023/12/12 10:20:29;;;;;;;0.70;0.70;;;;;;;11.71;100.00;99166.81;4991978;28;20026;-62
2023/12/12 10:23:00;;;;;;;0.63;0.63;;;;;;;11.73;100.00;99167.56;4992529;28;20038;-62
2023/12/12 10:25:30;;;;;;;0.60;0.60;;;;;;;11.77;100.00;99161.16;4996099;28;20482;-61
2023/12/12 10:27:57;;;;;;;0.60;0.60;;;;;;;11.78;100.00;99158.41;5010958;28;20030;-62
2023/12/12 10:30:22;;;;;;;0.60;0.60;;;;;;;11.86;100.00;99156.22;5002348;28;20056;-62
2023/12/12 10:32:51;;;;;;;0.70;0.70;;;;;;;11.94;100.00;99137.19;5006358;28;20061;-63
2023/12/12 10:35:17;;;;;;;0.60;0.60;;;;;;;12.01;100.00;99122.59;5008413;28;20053;-62
2023/12/12 10:37:42;;;;;;;0.60;0.60;;;;;;;12.09;100.00;99120.41;4999698;28;20033;-61
2023/12/12 10:40:22;;;;;;;0.70;0.70;;;;;;;12.19;100.00;99110.94;5009394;28;20076;-62
2023/12/12 10:42:49;;;;;;;0.60;0.60;;;;;;;12.26;100.00;99101.69;5005866;28;20668;-62
2023/12/12 10:45:16;;;;;;;0.60;0.60;;;;;;;12.37;100.00;99093.13;5009230;28;20037;-63
2023/12/12 10:47:46;;;;;;;0.60;0.60;;;;;;;12.39;100.00;99086.75;5008752;28;20516;-63
2023/12/12 10:50:15;;;;;;;0.57;0.57;;;;;;;12.41;100.00;99084.84;5008563;28;20031;-63
2023/12/12 10:52:43;;;;;;;0.60;0.60;;;;;;;12.35;100.00;99098.53;4993361;28;20033;-63
2023/12/12 10:55:14;;;;;;;0.60;0.60;;;;;;;12.29;100.00;99082.00;4990663;28;20490;-62
2023/12/12 10:57:44;;;;;;;0.57;0.57;;;;;;;12.34;100.00;99056.78;5002422;28;20121;-62
2023/12/12 11:00:14;;;;;;;0.60;0.60;;;;;;;12.36;100.00;99057.56;5015309;28;20603;-63
2023/12/12 11:02:42;;;;;;;0.60;0.60;;;;;;;12.38;100.00;99055.69;5015060;28;20037;-62
2023/12/12 11:05:12;;;;;;;0.60;0.60;;;;;;;12.46;100.00;99052.59;5015181;28;20033;-62
2023/12/12 11:07:39;;;;;;;0.70;0.70;;;;;;;12.48;100.00;99048.91;5011917;28;20373;-63
2023/12/12 11:10:10;;;;;;;0.60;0.60;;;;;;;12.49;100.00;99039.94;5015417;28;20367;-62
2023/12/12 11:12:51;;;;;;;0.50;0.50;;;;;;;12.52;100.00;99031.78;5005291;28;20541;-63
2023/12/12 11:15:18;;;;;;;0.60;0.60;;;;;;;12.51;100.00;99019.38;4995822;28;20084;-64
2023/12/12 11:17:43;;;;;;;0.60;0.60;;;;;;;12.51;100.00;99016.72;5011351;28;20088;-64
2023/12/12 11:20:13;;;;;;;0.68;0.68;;;;;;;12.58;100.00;99007.44;5013999;28;20029;-65
2023/12/12 11:22:41;;;;;;;0.60;0.60;;;;;;;12.63;100.00;99000.03;5013460;28;20382;-65